createdAt,value
2019-05-17T00:01:46.931Z,100923.79
2019-05-17T00:04:16.634Z,100927.32
2019-05-17T00:06:47.457Z,100918.47
2019-05-17T00:09:17.420Z,100918.92
2019-05-17T00:11:47.217Z,100916.27
2019-05-17T00:14:16.721Z,100913.27
2019-05-17T00:16:47.014Z,100910.41
2019-05-17T00:19:16.931Z,100899.11
2019-05-17T00:21:47.426Z,100903.81
2019-05-17T00:24:15.327Z,100897.36
2019-05-17T00:26:43.610Z,100905.87
2019-05-17T00:29:11.887Z,100903.50
2019-05-17T00:31:40.171Z,100904.10
2019-05-17T00:34:08.466Z,100897.04
2019-05-17T00:36:37.569Z,100893.22
2019-05-17T00:39:07.417Z,100892.27
2019-05-17T00:41:37.482Z,100885.00
2019-05-17T00:44:06.416Z,100881.61
2019-05-17T00:46:37.089Z,100879.59
2019-05-17T00:49:06.496Z,100876.59
2019-05-17T00:51:36.964Z,100877.44
2019-05-17T00:54:06.777Z,100874.37
2019-05-17T00:56:37.043Z,100875.76
2019-05-17T00:59:07.283Z,100883.36
2019-05-17T01:01:36.505Z,100877.98
2019-05-17T01:04:06.918Z,100878.45
2019-05-17T01:06:34.801Z,100876.22
2019-05-17T01:09:04.169Z,100870.61
2019-05-17T01:11:32.549Z,100875.52
2019-05-17T01:14:01.019Z,100873.98
2019-05-17T01:16:29.308Z,100862.61
2019-05-17T01:18:57.586Z,100862.31
2019-05-17T01:21:26.321Z,100868.86
2019-05-17T01:23:56.233Z,100860.72
2019-05-17T01:26:26.582Z,100856.85
2019-05-17T01:28:54.610Z,100852.86
2019-05-17T01:31:22.897Z,100853.33
2019-05-17T01:33:51.192Z,100847.64
2019-05-17T01:36:19.478Z,100852.27
2019-05-17T01:38:47.763Z,100849.86
2019-05-17T01:41:17.412Z,100851.77
2019-05-17T01:43:47.431Z,100853.39
2019-05-17T01:46:17.185Z,100841.48
2019-05-17T01:48:47.142Z,100842.28
2019-05-17T01:51:16.981Z,100838.82
2019-05-17T01:53:46.988Z,100850.11
2019-05-17T01:56:16.921Z,100836.80
2019-05-17T01:58:47.041Z,100837.34
2019-05-17T02:01:17.018Z,100837.34
2019-05-17T02:03:46.904Z,100837.34
2019-05-17T02:06:16.519Z,100831.06
2019-05-17T02:08:47.350Z,100835.28
2019-05-17T02:11:18.191Z,100825.42
2019-05-17T02:13:46.715Z,100821.68
2019-05-17T02:16:16.552Z,100825.36
2019-05-17T02:18:46.616Z,100815.61
2019-05-17T02:21:16.809Z,100811.15
2019-05-17T02:23:46.910Z,100803.78
2019-05-17T02:26:17.348Z,100797.02
2019-05-17T02:28:45.323Z,100809.52
2019-05-17T02:31:13.605Z,100802.71
2019-05-17T02:33:43.025Z,100797.25
2019-05-17T02:36:14.193Z,100804.31
2019-05-17T02:38:43.633Z,100806.72
2019-05-17T02:41:14.152Z,100811.53
2019-05-17T02:43:43.397Z,100815.46
2019-05-17T02:46:13.685Z,100810.84
2019-05-17T02:48:42.729Z,100802.78
2019-05-17T02:51:13.147Z,100805.25
2019-05-17T02:53:43.003Z,100809.07
2019-05-17T02:56:13.422Z,100806.77
2019-05-17T02:58:43.925Z,100810.76
2019-05-17T03:01:12.696Z,100808.86
2019-05-17T03:03:43.720Z,100817.70
2019-05-17T03:06:13.675Z,100823.37
2019-05-17T03:08:42.932Z,100816.23
2019-05-17T03:11:13.474Z,100819.46
2019-05-17T03:13:43.345Z,100820.62
2019-05-17T03:16:14.725Z,100822.37
2019-05-17T03:18:43.832Z,100822.37
2019-05-17T03:21:13.549Z,100822.52
2019-05-17T03:23:43.579Z,100828.34
2019-05-17T03:26:13.131Z,100828.58
2019-05-17T03:28:42.651Z,100826.43
2019-05-17T03:31:17.156Z,100821.68
2019-05-17T03:33:45.999Z,100822.14
2019-05-17T03:36:17.012Z,100818.61
2019-05-17T03:38:43.226Z,100816.69
2019-05-17T03:41:22.935Z,100814.62
2019-05-17T03:43:44.227Z,100806.16
2019-05-17T03:46:13.956Z,100804.25
2019-05-17T03:48:43.509Z,100804.71
2019-05-17T03:51:13.173Z,100800.80
2019-05-17T03:53:44.158Z,100797.10
2019-05-17T03:56:13.320Z,100800.80
2019-05-17T03:59:03.990Z,100800.63
2019-05-17T04:01:32.902Z,100802.92
2019-05-17T04:04:02.866Z,100809.38
2019-05-17T04:06:32.861Z,100812.38
2019-05-17T04:09:03.610Z,100814.38
2019-05-17T04:11:35.485Z,100821.14
2019-05-17T04:14:02.960Z,100814.23
2019-05-17T04:16:34.004Z,100812.23
2019-05-17T04:19:03.027Z,100809.08
2019-05-17T04:21:34.183Z,100812.05
2019-05-17T04:24:03.214Z,100811.78
2019-05-17T04:26:32.516Z,100809.77
2019-05-17T04:29:03.527Z,100812.47
2019-05-17T04:31:34.834Z,100814.92
2019-05-17T04:34:02.918Z,100814.08
2019-05-17T04:36:32.317Z,100823.81
2019-05-17T04:39:02.494Z,100822.91
2019-05-17T04:41:41.496Z,100823.06
2019-05-17T04:44:02.661Z,100825.06
2019-05-17T04:46:32.586Z,100817.52
2019-05-17T04:49:03.054Z,100822.43
2019-05-17T04:51:32.251Z,100821.73
2019-05-17T04:54:03.259Z,100817.69
2019-05-17T04:56:33.411Z,100820.15
2019-05-17T04:59:03.397Z,100811.37
2019-05-17T05:01:32.964Z,100808.68
2019-05-17T05:04:03.654Z,100802.77
2019-05-17T05:06:32.904Z,100808.98
2019-05-17T05:09:02.616Z,100804.91
2019-05-17T05:11:32.797Z,100807.80
2019-05-17T05:14:02.848Z,100788.78
2019-05-17T05:16:32.042Z,100799.07
2019-05-17T05:19:03.015Z,100802.45
2019-05-17T05:21:32.286Z,100805.22
2019-05-17T05:24:02.541Z,100807.77
2019-05-17T05:26:31.736Z,100796.69
2019-05-17T05:29:02.244Z,100786.08
2019-05-17T05:31:32.198Z,100786.08
2019-05-17T05:34:01.864Z,100792.23
2019-05-17T05:36:32.615Z,100794.22
2019-05-17T05:39:02.309Z,100794.08
2019-05-17T05:41:31.996Z,100801.45
2019-05-17T05:44:01.940Z,100801.45
2019-05-17T05:46:31.775Z,100799.27
2019-05-17T05:49:01.839Z,100799.25
2019-05-17T05:51:32.091Z,100803.99
2019-05-17T05:54:01.591Z,100798.61
2019-05-17T05:56:32.444Z,100807.67
2019-05-17T05:59:02.672Z,100803.72
2019-05-17T06:01:32.415Z,100807.25
2019-05-17T06:04:02.517Z,100807.25
2019-05-17T06:06:32.121Z,100810.71
2019-05-17T06:09:02.562Z,100809.41
2019-05-17T06:11:32.143Z,100810.41
2019-05-17T06:14:01.584Z,100804.60
2019-05-17T06:16:32.101Z,100801.80
2019-05-17T06:19:02.191Z,100798.09
2019-05-17T06:21:31.951Z,100798.89
2019-05-17T06:24:02.416Z,100799.53
2019-05-17T06:26:31.538Z,100802.69
2019-05-17T06:29:02.585Z,100802.87
2019-05-17T06:31:29.863Z,100808.17
2019-05-17T06:33:58.143Z,100802.56
2019-05-17T06:36:26.439Z,100805.41
2019-05-17T06:38:54.747Z,100804.20
2019-05-17T06:41:23.012Z,100800.56
2019-05-17T06:43:52.427Z,100790.05
2019-05-17T06:46:21.955Z,100792.36
2019-05-17T06:48:52.852Z,100795.91
2019-05-17T06:51:22.101Z,100793.97
2019-05-17T06:53:52.400Z,100793.75
2019-05-17T06:56:22.790Z,100794.59
2019-05-17T06:58:50.443Z,100793.10
2019-05-17T07:01:19.713Z,100798.88
2019-05-17T07:03:49.561Z,100802.96
2019-05-17T07:06:21.558Z,100797.55
2019-05-17T07:08:49.628Z,100803.48
2019-05-17T07:11:17.886Z,100802.66
2019-05-17T07:13:46.180Z,100791.78
2019-05-17T07:16:14.486Z,100801.64
2019-05-17T07:18:49.430Z,100808.25
2019-05-17T07:21:20.382Z,100810.53
2019-05-17T07:23:49.805Z,100810.38
2019-05-17T07:26:19.720Z,100804.05
2019-05-17T07:28:49.804Z,100801.77
2019-05-17T07:31:20.342Z,100792.28
2019-05-17T07:33:50.357Z,100781.72
2019-05-17T07:36:19.717Z,100784.68
2019-05-17T07:38:50.345Z,100786.84
2019-05-17T07:41:20.263Z,100783.67
2019-05-17T07:43:49.773Z,100785.61
2019-05-17T07:46:20.467Z,100782.78
2019-05-17T07:48:49.751Z,100778.22
2019-05-17T07:51:19.505Z,100780.63
2019-05-17T07:53:49.508Z,100786.28
2019-05-17T07:56:19.972Z,100776.57
2019-05-17T07:58:49.473Z,100780.88
2019-05-17T08:01:20.291Z,100783.67
2019-05-17T08:03:50.102Z,100779.48
2019-05-17T08:06:19.922Z,100781.43
2019-05-17T08:08:50.175Z,100782.98
2019-05-17T08:11:19.700Z,100790.14
2019-05-17T08:13:50.270Z,100787.27
2019-05-17T08:16:19.648Z,100777.36
2019-05-17T08:18:49.677Z,100770.73
2019-05-17T08:21:19.920Z,100776.17
2019-05-17T08:23:50.646Z,100784.55
2019-05-17T08:26:20.021Z,100790.16
2019-05-17T08:28:49.904Z,100789.91
2019-05-17T08:31:20.207Z,100789.34
2019-05-17T08:33:49.804Z,100792.34
2019-05-17T08:36:20.142Z,100790.66
2019-05-17T08:38:50.181Z,100793.00
2019-05-17T08:41:20.634Z,100797.30
2019-05-17T08:43:51.164Z,100796.93
2019-05-17T08:46:19.905Z,100792.83
2019-05-17T08:48:49.501Z,100795.73
2019-05-17T08:51:19.702Z,100797.88
2019-05-17T08:53:49.296Z,100794.81
2019-05-17T08:56:17.632Z,100789.83
2019-05-17T08:58:46.395Z,100792.17
2019-05-17T09:01:14.672Z,100782.27
2019-05-17T09:03:42.992Z,100782.27
2019-05-17T09:06:12.346Z,100775.78
2019-05-17T09:08:41.109Z,100780.84
2019-05-17T09:11:09.953Z,100775.89
2019-05-17T09:13:40.105Z,100773.92
2019-05-17T09:16:10.530Z,100773.90
2019-05-17T09:18:39.437Z,100772.69
2019-05-17T09:21:09.740Z,100767.31
2019-05-17T09:23:39.670Z,100767.45
2019-05-17T09:26:10.002Z,100760.89
2019-05-17T09:28:39.446Z,100763.40
2019-05-17T09:31:10.221Z,100765.77
2019-05-17T09:33:37.769Z,100764.75
2019-05-17T09:36:06.073Z,100763.69
2019-05-17T09:38:34.388Z,100759.25
2019-05-17T09:41:02.676Z,100758.88
2019-05-17T09:43:30.951Z,100770.88
2019-05-17T09:46:01.596Z,100769.86
2019-05-17T09:48:30.711Z,100764.11
2019-05-17T09:50:59.970Z,100766.46
2019-05-17T09:53:30.660Z,100763.77
2019-05-17T09:56:00.560Z,100766.09
2019-05-17T09:58:29.936Z,100770.98
2019-05-17T10:01:01.074Z,100766.77
2019-05-17T10:03:30.519Z,100764.20
2019-05-17T10:06:00.008Z,100761.30
2019-05-17T10:08:28.434Z,100669.80
2019-05-17T10:11:06.068Z,100743.83
2019-05-17T10:13:26.700Z,100753.41
2019-05-17T10:15:54.987Z,100737.98
2019-05-17T10:18:23.252Z,100743.17
2019-05-17T10:20:51.525Z,100739.12
2019-05-17T10:23:19.843Z,100734.36
2019-05-17T10:25:48.078Z,100735.52
2019-05-17T10:28:16.360Z,100731.89
2019-05-17T10:30:44.673Z,100720.79
2019-05-17T10:33:12.949Z,100717.80
2019-05-17T10:35:41.315Z,100717.61
2019-05-17T10:38:10.439Z,100711.80
2019-05-17T10:40:41.173Z,100713.77
2019-05-17T10:43:10.208Z,100705.84
2019-05-17T10:45:40.133Z,100711.45
2019-05-17T10:48:10.231Z,100715.31
2019-05-17T10:50:40.675Z,100718.29
2019-05-17T10:53:10.005Z,100713.29
2019-05-17T10:55:39.693Z,100713.88
2019-05-17T10:58:09.927Z,100716.86
2019-05-17T11:00:40.947Z,100712.54
2019-05-17T11:03:09.778Z,100718.95
2019-05-17T11:05:40.321Z,100710.86
2019-05-17T11:08:10.648Z,100710.86
2019-05-17T11:10:39.356Z,100717.91
2019-05-17T11:13:07.923Z,100717.80
2019-05-17T11:15:36.200Z,100707.54
2019-05-17T11:18:05.343Z,100709.09
2019-05-17T11:20:33.610Z,100712.23
2019-05-17T11:23:01.930Z,100706.23
2019-05-17T11:25:30.195Z,100708.27
2019-05-17T11:27:58.470Z,100705.13
2019-05-17T11:30:26.770Z,100700.45
2019-05-17T11:32:55.022Z,100702.70
2019-05-17T11:35:24.776Z,100707.30
2019-05-17T11:37:54.823Z,100703.73
2019-05-17T11:40:23.278Z,100697.46
2019-05-17T11:42:51.544Z,100694.39
2019-05-17T11:45:27.925Z,100684.30
2019-05-17T11:47:49.884Z,100682.62
2019-05-17T11:50:18.238Z,100680.38
2019-05-17T11:52:46.522Z,100677.33
2019-05-17T11:55:14.853Z,100680.58
2019-05-17T11:57:43.150Z,100676.36
2019-05-17T12:00:12.112Z,100686.08
2019-05-17T12:02:40.398Z,100685.23
2019-05-17T12:05:08.740Z,100686.33
2019-05-17T12:07:37.028Z,100677.56
2019-05-17T12:10:06.775Z,100671.56
2019-05-17T12:12:35.070Z,100667.22
2019-05-17T12:15:04.425Z,100663.47
2019-05-17T12:17:32.717Z,100659.42
2019-05-17T12:20:01.045Z,100657.08
2019-05-17T12:22:29.360Z,100651.17
2019-05-17T12:24:57.631Z,100659.35
2019-05-17T12:27:25.904Z,100652.39
2019-05-17T12:29:54.184Z,100657.80
2019-05-17T12:32:22.475Z,100653.00
2019-05-17T12:34:50.765Z,100654.55
2019-05-17T12:37:19.134Z,100651.08
2019-05-17T12:39:47.431Z,100646.86
2019-05-17T12:42:15.715Z,100648.31
2019-05-17T12:44:44.032Z,100643.88
2019-05-17T12:47:12.351Z,100641.63
2019-05-17T12:49:40.645Z,100637.41
2019-05-17T12:52:08.931Z,100639.55
2019-05-17T12:54:37.224Z,100638.10
2019-05-17T12:57:05.509Z,100643.38
2019-05-17T12:59:33.767Z,100633.03
2019-05-17T13:02:02.162Z,100636.47
2019-05-17T13:04:30.486Z,100635.55
2019-05-17T13:06:58.774Z,100630.11
2019-05-17T13:09:27.051Z,100630.27
2019-05-17T13:11:55.316Z,100638.34
2019-05-17T13:14:23.587Z,100641.94
2019-05-17T13:16:51.919Z,100640.98
2019-05-17T13:19:20.197Z,100640.98
2019-05-17T13:21:48.479Z,100643.98
2019-05-17T13:24:16.744Z,100635.08
2019-05-17T13:26:45.030Z,100631.42
2019-05-17T13:29:13.298Z,100628.73
2019-05-17T13:31:41.586Z,100616.95
2019-05-17T13:34:09.840Z,100615.52
2019-05-17T13:36:38.090Z,100616.28
2019-05-17T13:39:07.774Z,100607.33
2019-05-17T13:41:36.029Z,100609.34
2019-05-17T13:44:04.344Z,100609.11
2019-05-17T13:46:33.711Z,100608.41
2019-05-17T13:49:02.086Z,100608.87
2019-05-17T13:51:30.520Z,100605.67
2019-05-17T13:53:58.780Z,100603.59
2019-05-17T13:56:27.057Z,100603.20
2019-05-17T13:58:55.345Z,100603.20
2019-05-17T14:01:23.597Z,100603.11
2019-05-17T14:03:51.892Z,100602.59
2019-05-17T14:06:20.148Z,100596.92
2019-05-17T14:08:48.420Z,100595.16
2019-05-17T14:11:16.701Z,100591.53
2019-05-17T14:13:44.964Z,100594.67
2019-05-17T14:16:13.241Z,100590.08
2019-05-17T14:18:41.514Z,100591.56
2019-05-17T14:21:09.793Z,100595.02
2019-05-17T14:23:38.070Z,100592.73
2019-05-17T14:26:06.343Z,100597.55
2019-05-17T14:28:34.600Z,100590.50
2019-05-17T14:31:02.899Z,100589.25
2019-05-17T14:33:31.185Z,100585.48
2019-05-17T14:35:59.437Z,100582.66
2019-05-17T14:38:27.716Z,100589.53
2019-05-17T14:41:11.451Z,100590.66
2019-05-17T14:43:25.989Z,100585.56
2019-05-17T14:45:54.261Z,100592.42
2019-05-17T14:48:22.527Z,100591.88
2019-05-17T14:50:50.802Z,100592.17
2019-05-17T14:53:19.059Z,100588.20
2019-05-17T14:55:47.364Z,100578.31
2019-05-17T14:58:15.787Z,100585.38
2019-05-17T15:00:44.069Z,100580.25
2019-05-17T15:03:12.333Z,100583.61
2019-05-17T15:05:40.609Z,100579.77
2019-05-17T15:08:08.881Z,100576.16
2019-05-17T15:10:37.169Z,100576.50
2019-05-17T15:13:05.452Z,100577.13
2019-05-17T15:15:33.712Z,100573.73
2019-05-17T15:18:01.987Z,100575.36
2019-05-17T15:20:30.250Z,100574.14
2019-05-17T15:22:58.526Z,100571.19
2019-05-17T15:25:26.813Z,100564.98
2019-05-17T15:27:55.074Z,100563.23
2019-05-17T15:30:23.339Z,100570.11
2019-05-17T15:32:51.621Z,100563.66
2019-05-17T15:35:19.882Z,100559.74
2019-05-17T15:37:48.150Z,100560.50
2019-05-17T15:40:16.484Z,100555.08
2019-05-17T15:42:45.028Z,100553.64
2019-05-17T15:45:13.386Z,100553.81
2019-05-17T15:47:41.680Z,100546.47
2019-05-17T15:50:10.899Z,100555.84
2019-05-17T15:52:39.154Z,100554.16
2019-05-17T15:55:07.718Z,100552.37
2019-05-17T15:57:36.001Z,100544.95
2019-05-17T16:00:06.684Z,100541.91
2019-05-17T16:02:34.925Z,100544.05
2019-05-17T16:05:03.457Z,100536.38
2019-05-17T16:07:31.728Z,100539.63
2019-05-17T16:09:59.993Z,100542.04
2019-05-17T16:12:28.276Z,100535.86
2019-05-17T16:14:56.531Z,100536.45
2019-05-17T16:17:24.822Z,100536.98
2019-05-17T16:19:53.102Z,100533.36
2019-05-17T16:22:21.362Z,100529.17
2019-05-17T16:24:49.631Z,100523.96
2019-05-17T16:27:17.898Z,100532.40
2019-05-17T16:29:46.177Z,100528.95
2019-05-17T16:32:14.464Z,100539.89
2019-05-17T16:34:42.756Z,100540.05
2019-05-17T16:37:11.048Z,100534.59
2019-05-17T16:39:39.329Z,100530.06
2019-05-17T16:42:07.604Z,100531.03
2019-05-17T16:44:35.909Z,100533.89
2019-05-17T16:47:04.258Z,100537.70
2019-05-17T16:49:32.537Z,100525.00
2019-05-17T16:52:00.832Z,100526.84
2019-05-17T16:54:29.107Z,100527.88
2019-05-17T16:56:57.408Z,100528.13
2019-05-17T16:59:25.686Z,100523.74
2019-05-17T17:01:53.983Z,100532.06
2019-05-17T17:04:22.262Z,100528.94
2019-05-17T17:06:50.540Z,100530.17
2019-05-17T17:09:18.813Z,100528.84
2019-05-17T17:11:47.092Z,100528.97
2019-05-17T17:14:15.363Z,100527.03
2019-05-17T17:16:43.650Z,100525.95
2019-05-17T17:19:13.577Z,100525.00
2019-05-17T17:21:42.024Z,100522.25
2019-05-17T17:24:10.301Z,100523.17
2019-05-17T17:26:38.576Z,100522.67
2019-05-17T17:29:06.851Z,100517.41
2019-05-17T17:31:35.116Z,100518.72
2019-05-17T17:34:03.398Z,100517.41
2019-05-17T17:36:31.685Z,100522.09
2019-05-17T17:38:59.958Z,100525.21
2019-05-17T17:41:28.418Z,100519.34
2019-05-17T17:43:58.970Z,100527.38
2019-05-17T17:46:26.696Z,100527.98
2019-05-17T17:48:55.065Z,100530.61
2019-05-17T17:51:23.389Z,100525.16
2019-05-17T17:53:51.653Z,100524.46
2019-05-17T17:56:19.939Z,100519.55
2019-05-17T17:58:48.248Z,100519.89
2019-05-17T18:01:16.524Z,100524.73
2019-05-17T18:03:45.201Z,100527.98
2019-05-17T18:06:13.500Z,100512.53
2019-05-17T18:08:41.775Z,100523.42
2019-05-17T18:11:10.070Z,100525.33
2019-05-17T18:13:38.357Z,100521.85
2019-05-17T18:16:06.646Z,100522.22
2019-05-17T18:18:34.936Z,100528.57
2019-05-17T18:21:03.229Z,100531.77
2019-05-17T18:23:31.511Z,100520.25
2019-05-17T18:25:59.865Z,100525.27
2019-05-17T18:28:28.163Z,100533.12
2019-05-17T18:30:56.453Z,100537.31
2019-05-17T18:33:24.732Z,100519.67
2019-05-17T18:35:53.006Z,100523.56
2019-05-17T18:38:23.408Z,100523.09
2019-05-17T18:40:51.698Z,100529.36
2019-05-17T18:43:19.978Z,100519.32
2019-05-17T18:45:48.265Z,100518.27
2019-05-17T18:48:16.589Z,100521.32
2019-05-17T18:50:44.955Z,100520.53
2019-05-17T18:53:16.984Z,100522.47
2019-05-17T18:55:43.243Z,100527.52
2019-05-17T18:58:11.533Z,100525.31
2019-05-17T19:00:39.826Z,100532.51
2019-05-17T19:03:08.090Z,100533.67
2019-05-17T19:05:36.393Z,100526.10
2019-05-17T19:08:04.655Z,100526.10
2019-05-17T19:10:32.943Z,100537.61
2019-05-17T19:13:01.239Z,100532.50
2019-05-17T19:15:29.522Z,100531.13
2019-05-17T19:17:57.817Z,100536.09
2019-05-17T19:20:26.094Z,100541.34
2019-05-17T19:22:54.441Z,100540.23
2019-05-17T19:25:22.725Z,100547.23
2019-05-17T19:27:51.012Z,100533.56
2019-05-17T19:30:19.626Z,100544.34
2019-05-17T19:32:47.916Z,100543.77
2019-05-17T19:35:16.947Z,100542.02
2019-05-17T19:37:45.224Z,100536.84
2019-05-17T19:40:13.777Z,100543.91
2019-05-17T19:42:42.060Z,100546.74
2019-05-17T19:45:10.512Z,100547.58
2019-05-17T19:47:38.797Z,100551.12
2019-05-17T19:50:07.431Z,100550.73
2019-05-17T19:52:35.698Z,100550.64
2019-05-17T19:55:07.664Z,100547.38
2019-05-17T19:57:36.380Z,100543.06
2019-05-17T20:00:10.646Z,100545.05
2019-05-17T20:02:38.927Z,100546.27
2019-05-17T20:05:07.442Z,100546.73
2019-05-17T20:07:38.694Z,100543.20
2019-05-17T20:10:09.070Z,100545.77
2019-05-17T20:12:37.368Z,100544.88
2019-05-17T20:15:17.291Z,100546.16
2019-05-17T20:17:37.706Z,100546.52
2019-05-17T20:20:08.335Z,100543.14
2019-05-17T20:22:36.615Z,100536.59
2019-05-17T20:25:06.605Z,100536.95
2019-05-17T20:27:34.951Z,100541.53
2019-05-17T20:30:05.150Z,100532.09
2019-05-17T20:32:33.468Z,100533.79
2019-05-17T20:35:01.758Z,100537.11
2019-05-17T20:37:30.054Z,100530.00
2019-05-17T20:39:58.356Z,100529.63
2019-05-17T20:42:26.653Z,100524.20
2019-05-17T20:44:54.939Z,100522.43
2019-05-17T20:47:23.303Z,100520.17
2019-05-17T20:49:51.584Z,100526.72
2019-05-17T20:52:19.892Z,100518.75
2019-05-17T20:54:48.190Z,100519.80
2019-05-17T20:57:16.467Z,100516.15
2019-05-17T20:59:44.765Z,100514.09
2019-05-17T21:02:13.038Z,100514.55
2019-05-17T21:04:41.330Z,100511.45
2019-05-17T21:07:09.629Z,100503.55
2019-05-17T21:09:37.919Z,100505.97
2019-05-17T21:12:06.220Z,100500.46
2019-05-17T21:14:34.500Z,100502.66
2019-05-17T21:17:02.800Z,100502.61
2019-05-17T21:19:31.090Z,100505.33
2019-05-17T21:21:59.389Z,100506.69
2019-05-17T21:24:27.668Z,100506.27
2019-05-17T21:26:55.959Z,100506.50
2019-05-17T21:29:24.246Z,100502.05
2019-05-17T21:31:52.604Z,100501.66
2019-05-17T21:34:20.895Z,100504.28
2019-05-17T21:36:49.169Z,100502.55
2019-05-17T21:39:17.461Z,100501.38
2019-05-17T21:41:45.755Z,100504.00
2019-05-17T21:44:14.044Z,100499.16
2019-05-17T21:46:42.316Z,100497.56
2019-05-17T21:49:10.603Z,100503.08
2019-05-17T21:51:38.898Z,100500.73
2019-05-17T21:54:07.251Z,100507.84
2019-05-17T21:56:35.551Z,100499.41
2019-05-17T21:59:03.887Z,100505.78
2019-05-17T22:01:33.665Z,100507.92
2019-05-17T22:04:01.955Z,100506.09
2019-05-17T22:06:30.244Z,100505.77
2019-05-17T22:08:58.527Z,100504.77
2019-05-17T22:11:26.819Z,100504.77
2019-05-17T22:13:55.111Z,100504.22
2019-05-17T22:16:23.400Z,100507.86
2019-05-17T22:18:51.690Z,100502.61
2019-05-17T22:21:19.978Z,100497.84
2019-05-17T22:23:48.281Z,100497.27
2019-05-17T22:26:16.540Z,100498.94
2019-05-17T22:28:44.833Z,100494.84
2019-05-17T22:31:13.117Z,100494.33
2019-05-17T22:33:42.367Z,100493.48
2019-05-17T22:36:10.662Z,100495.84
2019-05-17T22:38:38.932Z,100492.19
2019-05-17T22:41:07.212Z,100490.61
2019-05-17T22:43:35.495Z,100495.38
2019-05-17T22:46:03.770Z,100490.00
2019-05-17T22:48:32.073Z,100488.13
2019-05-17T22:51:00.354Z,100487.76
2019-05-17T22:53:28.636Z,100482.70
2019-05-17T22:55:56.953Z,100484.12
2019-05-17T22:58:25.219Z,100493.09
2019-05-17T23:00:53.500Z,100488.04
2019-05-17T23:03:21.802Z,100497.58
2019-05-17T23:05:50.153Z,100493.84
2019-05-17T23:08:18.429Z,100489.25
2019-05-17T23:10:46.713Z,100493.94
2019-05-17T23:13:15.017Z,100492.62
2019-05-17T23:16:02.061Z,100489.53
2019-05-17T23:18:34.123Z,100491.69
2019-05-17T23:21:02.665Z,100486.36
2019-05-17T23:23:31.204Z,100484.95
2019-05-17T23:25:59.497Z,100484.02
2019-05-17T23:28:27.787Z,100485.61
2019-05-17T23:30:56.066Z,100481.10
2019-05-17T23:33:24.374Z,100475.21
2019-05-17T23:35:52.653Z,100480.09
2019-05-17T23:38:20.944Z,100474.47
2019-05-17T23:40:49.295Z,100468.86
2019-05-17T23:43:17.563Z,100470.50
2019-05-17T23:45:45.865Z,100467.45
2019-05-17T23:48:14.153Z,100473.53
2019-05-17T23:50:42.443Z,100466.98
2019-05-17T23:53:10.717Z,100468.86
2019-05-17T23:55:39.013Z,100469.05
2019-05-17T23:58:07.317Z,100469.60
